createdAt,value
2022-10-20T00:01:55.711Z,101681.97
2022-10-20T00:04:23.418Z,101683.72
2022-10-20T00:06:51.163Z,101687.31
2022-10-20T00:09:18.854Z,101688.16
2022-10-20T00:11:46.899Z,101680.13
2022-10-20T00:14:15.995Z,101680.97
2022-10-20T00:16:43.653Z,101670.28
2022-10-20T00:19:12.127Z,101672.09
2022-10-20T00:21:39.800Z,101669.44
2022-10-20T00:24:07.467Z,101664.97
2022-10-20T00:26:35.211Z,101649.81
2022-10-20T00:29:03.896Z,101651.59
2022-10-20T00:31:33.338Z,101647.09
2022-10-20T00:34:00.996Z,101639.97
2022-10-20T00:36:28.668Z,101626.63
2022-10-20T00:38:59.596Z,101621.28
2022-10-20T00:41:28.030Z,101618.59
2022-10-20T00:43:58.332Z,101609.72
2022-10-20T00:46:29.716Z,101601.72
2022-10-20T00:49:02.953Z,101598.13
2022-10-20T00:51:34.501Z,101590.09
2022-10-20T00:54:08.649Z,101579.44
2022-10-20T00:56:37.988Z,101582.97
2022-10-20T00:59:06.258Z,101592.78
2022-10-20T01:01:34.296Z,101595.47
2022-10-20T01:04:03.739Z,101600.84
2022-10-20T01:06:31.586Z,101593.72
2022-10-20T01:08:59.662Z,101593.69
2022-10-20T01:11:34.340Z,101593.69
2022-10-20T01:14:14.383Z,101587.47
2022-10-20T01:16:54.018Z,101586.56
2022-10-20T01:19:54.372Z,101580.25
2022-10-20T01:22:33.670Z,101563.41
2022-10-20T01:25:17.457Z,101555.38
2022-10-20T01:27:47.969Z,101559.81
2022-10-20T01:30:17.781Z,101554.47
2022-10-20T01:32:56.259Z,101551.78
2022-10-20T01:35:35.380Z,101549.13
2022-10-20T01:38:12.129Z,101536.72
2022-10-20T01:40:44.744Z,101531.34
2022-10-20T01:43:16.459Z,101524.22
2022-10-20T01:45:48.386Z,101530.41
2022-10-20T01:48:19.021Z,101523.25
2022-10-20T01:50:48.401Z,101519.72
2022-10-20T01:53:17.364Z,101515.28
2022-10-20T01:55:45.110Z,101517.94
2022-10-20T01:58:42.364Z,101517.94
2022-10-20T02:01:19.118Z,101524.19
2022-10-20T02:03:54.261Z,101512.59
2022-10-20T02:06:33.959Z,101512.59
2022-10-20T02:09:04.563Z,101506.38
2022-10-20T02:11:41.301Z,101501.06
2022-10-20T02:14:15.354Z,101489.53
2022-10-20T02:16:48.300Z,101485.94
2022-10-20T02:19:20.364Z,101478.88
2022-10-20T02:21:49.767Z,101454.88
2022-10-20T02:24:19.637Z,101453.06
2022-10-20T02:26:47.299Z,101453.94
2022-10-20T02:29:19.339Z,101452.16
2022-10-20T02:31:48.058Z,101461.91
2022-10-20T02:34:16.305Z,101445.03
2022-10-20T02:36:45.332Z,101447.69
2022-10-20T02:39:13.258Z,101433.44
2022-10-20T02:41:40.862Z,101437.91
2022-10-20T02:44:08.742Z,101439.72
2022-10-20T02:46:37.738Z,101438.84
2022-10-20T02:49:05.568Z,101442.38
2022-10-20T02:51:33.194Z,101441.47
2022-10-20T02:54:00.818Z,101434.38
2022-10-20T02:56:30.951Z,101436.16
2022-10-20T02:58:59.055Z,101429.06
2022-10-20T03:01:26.855Z,101421.06
2022-10-20T03:03:59.557Z,101424.59
2022-10-20T03:06:27.903Z,101423.72
2022-10-20T03:08:55.608Z,101420.16
2022-10-20T03:11:23.640Z,101425.50
2022-10-20T03:13:51.288Z,101421.06
2022-10-20T03:16:18.944Z,101421.06
2022-10-20T03:18:46.743Z,101413.06
2022-10-20T03:21:15.784Z,101412.19
2022-10-20T03:23:43.442Z,101407.72
2022-10-20T03:26:12.680Z,101403.25
2022-10-20T03:28:41.073Z,101406.84
2022-10-20T03:31:09.319Z,101393.53
2022-10-20T03:33:37.139Z,101390.84
2022-10-20T03:36:05.996Z,101391.72
2022-10-20T03:38:35.113Z,101403.31
2022-10-20T03:41:02.819Z,101398.88
2022-10-20T03:43:30.572Z,101394.41
2022-10-20T03:46:05.634Z,101381.06
2022-10-20T03:48:33.618Z,101377.50
2022-10-20T03:51:02.553Z,101386.38
2022-10-20T03:53:31.110Z,101375.72
2022-10-20T03:56:00.164Z,101385.53
2022-10-20T03:58:27.823Z,101390.84
2022-10-20T04:00:55.956Z,101381.06
2022-10-20T04:03:23.650Z,101383.72
2022-10-20T04:05:51.362Z,101367.72
2022-10-20T04:08:19.107Z,101359.72
2022-10-20T04:10:46.813Z,101365.06
2022-10-20T04:13:15.879Z,101359.72
2022-10-20T04:15:43.569Z,101362.41
2022-10-20T04:18:11.306Z,101346.41
2022-10-20T04:20:41.992Z,101348.19
2022-10-20T04:23:12.368Z,101343.75
2022-10-20T04:25:45.406Z,101353.53
2022-10-20T04:28:14.875Z,101348.19
2022-10-20T04:30:43.607Z,101343.72
2022-10-20T04:33:11.683Z,101333.06
2022-10-20T04:35:39.966Z,101331.31
2022-10-20T04:38:08.199Z,101333.97
2022-10-20T04:40:35.888Z,101331.31
2022-10-20T04:43:03.669Z,101322.41
2022-10-20T04:45:32.718Z,101329.53
2022-10-20T04:48:00.403Z,101325.13
2022-10-20T04:50:28.107Z,101311.78
2022-10-20T04:52:55.785Z,101303.78
2022-10-20T04:55:23.471Z,101306.44
2022-10-20T04:57:51.225Z,101293.97
2022-10-20T05:00:18.979Z,101293.09
2022-10-20T05:02:48.067Z,101294.88
2022-10-20T05:05:15.873Z,101278.91
2022-10-20T05:07:43.582Z,101266.44
2022-10-20T05:10:11.365Z,101270.91
2022-10-20T05:12:39.357Z,101263.75
2022-10-20T05:15:08.099Z,101245.09
2022-10-20T05:17:35.846Z,101252.19
2022-10-20T05:20:05.830Z,101240.63
2022-10-20T05:22:33.944Z,101238.88
2022-10-20T05:25:24.538Z,101245.09
2022-10-20T05:27:49.591Z,101251.31
2022-10-20T05:30:17.406Z,101253.09
2022-10-20T05:32:46.728Z,101243.34
2022-10-20T05:35:16.049Z,101238.88
2022-10-20T05:37:43.725Z,101231.78
2022-10-20T05:40:12.093Z,101232.69
2022-10-20T05:42:39.867Z,101242.47
2022-10-20T05:45:09.154Z,101235.34
2022-10-20T05:47:36.830Z,101224.69
2022-10-20T05:50:04.957Z,101232.69
2022-10-20T05:52:36.285Z,101234.47
2022-10-20T05:55:05.019Z,101226.47
2022-10-20T05:57:32.663Z,101218.47
2022-10-20T06:00:00.258Z,101206.00
2022-10-20T06:02:27.914Z,101205.09
2022-10-20T06:04:55.559Z,101214.00
2022-10-20T06:07:23.225Z,101205.09
2022-10-20T06:09:52.293Z,101203.34
2022-10-20T06:12:20.005Z,101203.34
2022-10-20T06:14:47.709Z,101203.34
2022-10-20T06:17:15.365Z,101211.34
2022-10-20T06:19:43.054Z,101204.22
2022-10-20T06:22:11.008Z,101205.13
2022-10-20T06:24:38.678Z,101198.00
2022-10-20T06:27:08.574Z,101207.75
2022-10-20T06:29:36.266Z,101206.00
2022-10-20T06:32:03.993Z,101211.34
2022-10-20T06:34:31.774Z,101206.88
2022-10-20T06:36:59.442Z,101202.44
2022-10-20T06:39:27.148Z,101205.13
2022-10-20T06:41:55.950Z,101201.56
2022-10-20T06:44:25.627Z,101217.59
2022-10-20T06:46:53.379Z,101212.25
2022-10-20T06:49:21.450Z,101217.59
2022-10-20T06:51:52.178Z,101224.72
2022-10-20T06:54:20.161Z,101223.81
2022-10-20T06:56:47.827Z,101222.06
2022-10-20T06:59:15.576Z,101226.50
2022-10-20T07:01:44.801Z,101215.84
2022-10-20T07:04:16.429Z,101221.16
2022-10-20T07:06:46.308Z,101216.69
2022-10-20T07:09:16.624Z,101208.69
2022-10-20T07:11:44.846Z,101202.47
2022-10-20T07:14:14.189Z,101218.53
2022-10-20T07:16:42.146Z,101219.41
2022-10-20T07:19:11.130Z,101225.66
2022-10-20T07:21:41.534Z,101238.09
2022-10-20T07:24:11.058Z,101226.50
2022-10-20T07:26:40.802Z,101228.28
2022-10-20T07:29:08.792Z,101222.91
2022-10-20T07:31:38.719Z,101214.91
2022-10-20T07:34:23.759Z,101218.44
2022-10-20T07:36:54.649Z,101215.78
2022-10-20T07:39:22.519Z,101217.53
2022-10-20T07:41:50.354Z,101218.38
2022-10-20T07:44:18.405Z,101216.56
2022-10-20T07:46:46.157Z,101216.53
2022-10-20T07:52:03.035Z,101201.31
2022-10-20T07:54:30.728Z,101210.19
2022-10-20T07:56:58.485Z,101195.88
2022-10-20T07:59:26.259Z,101186.00
2022-10-20T08:01:56.122Z,101185.09
2022-10-20T08:04:26.359Z,101187.72
2022-10-20T08:06:54.220Z,101189.44
2022-10-20T08:09:23.220Z,101193.91
2022-10-20T08:11:54.591Z,101190.25
2022-10-20T08:14:23.778Z,101177.69
2022-10-20T08:16:55.540Z,101166.03
2022-10-20T08:22:07.523Z,101191.78
2022-10-20T08:24:36.588Z,101187.19
2022-10-20T08:27:04.558Z,101178.16
2022-10-20T08:29:32.301Z,101179.78
2022-10-20T08:31:59.950Z,101176.13
2022-10-20T08:34:27.646Z,101167.06
2022-10-20T08:36:55.290Z,101161.53
2022-10-20T08:39:22.954Z,101164.06
2022-10-20T08:42:08.000Z,101161.22
2022-10-20T08:44:37.567Z,101176.25
2022-10-20T08:47:13.664Z,101164.41
2022-10-20T08:49:41.514Z,101157.06
2022-10-20T08:52:15.085Z,101151.41
2022-10-20T08:54:42.825Z,101156.56
2022-10-20T08:57:22.797Z,101148.25
2022-10-20T08:59:53.322Z,101145.34
2022-10-20T09:02:22.563Z,101131.72
2022-10-20T09:04:54.526Z,101126.09
2022-10-20T09:07:30.814Z,101113.38
2022-10-20T09:10:05.495Z,101114.09
2022-10-20T09:12:35.465Z,101118.41
2022-10-20T09:15:05.258Z,101113.81
2022-10-20T09:17:33.243Z,101115.59
2022-10-20T09:20:02.404Z,101118.22
2022-10-20T09:22:35.681Z,101100.19
2022-10-20T09:25:04.488Z,101119.84
2022-10-20T09:27:36.728Z,101110.84
2022-10-20T09:30:21.346Z,101121.47
2022-10-20T09:32:49.625Z,101127.63
2022-10-20T09:35:24.044Z,101131.03
2022-10-20T09:38:18.507Z,101123.94
2022-10-20T09:40:47.673Z,101115.78
2022-10-20T09:43:19.110Z,101119.34
2022-10-20T09:45:53.489Z,101113.03
2022-10-20T09:48:25.067Z,101112.09
2022-10-20T09:50:56.112Z,101107.53
2022-10-20T09:53:29.118Z,101088.66
2022-10-20T09:55:57.310Z,101096.69
2022-10-20T09:58:30.145Z,101089.44
2022-10-20T10:01:01.676Z,101085.84
2022-10-20T10:03:29.921Z,101095.69
2022-10-20T10:05:59.098Z,101098.44
2022-10-20T10:08:29.706Z,101087.66
2022-10-20T10:11:03.053Z,101086.72
2022-10-20T10:13:39.903Z,101090.31
2022-10-20T10:16:10.695Z,101107.41
2022-10-20T10:18:39.763Z,101116.44
2022-10-20T10:21:11.264Z,101130.81
2022-10-20T10:23:52.492Z,101139.84
2022-10-20T10:26:44.870Z,101145.25
2022-10-20T10:29:26.539Z,101145.25
2022-10-20T10:31:59.837Z,101140.75
2022-10-20T10:34:44.726Z,101130.88
2022-10-20T10:37:17.963Z,101115.44
2022-10-20T10:39:53.445Z,101108.97
2022-10-20T10:42:44.931Z,101123.16
2022-10-20T10:45:24.203Z,101131.97
2022-10-20T10:48:19.005Z,101130.09
2022-10-20T10:50:51.651Z,101124.69
2022-10-20T10:53:30.224Z,101122.00
2022-10-20T10:56:05.531Z,101127.34
2022-10-20T10:58:43.794Z,101117.38
2022-10-20T11:01:25.312Z,101119.91
2022-10-20T11:04:12.161Z,101108.41
2022-10-20T11:06:45.627Z,101111.91
2022-10-20T11:09:28.842Z,101095.69
2022-10-20T11:12:22.272Z,101105.59
2022-10-20T11:15:02.843Z,101102.88
2022-10-20T11:17:48.288Z,101093.03
2022-10-20T11:20:35.457Z,101081.47
2022-10-20T11:23:29.651Z,101063.53
2022-10-20T11:26:09.463Z,101066.25
2022-10-20T11:28:44.241Z,101062.72
2022-10-20T11:31:21.941Z,101071.72
2022-10-20T11:33:56.723Z,101068.13
2022-10-20T11:36:27.116Z,101069.94
2022-10-20T11:38:56.659Z,101061.88
2022-10-20T11:41:30.565Z,101070.88
2022-10-20T11:44:04.502Z,101071.88
2022-10-20T11:46:38.249Z,101074.56
2022-10-20T11:49:07.613Z,101080.91
2022-10-20T11:51:59.176Z,101080.06
2022-10-20T11:54:53.404Z,101077.53
2022-10-20T11:57:30.136Z,101075.88
2022-10-20T12:00:14.527Z,101082.31
2022-10-20T12:03:26.384Z,101082.44
2022-10-20T12:06:18.229Z,101090.59
2022-10-20T12:09:12.870Z,101089.69
2022-10-20T12:11:49.354Z,101099.69
2022-10-20T12:14:25.553Z,101090.69
2022-10-20T12:17:13.360Z,101096.09
2022-10-20T12:19:41.410Z,101099.75
2022-10-20T12:22:41.466Z,101094.41
2022-10-20T12:25:38.013Z,101083.72
2022-10-20T12:28:45.618Z,101082.97
2022-10-20T12:31:13.273Z,101083.91
2022-10-20T12:34:01.923Z,101074.09
2022-10-20T12:36:37.643Z,101073.19
2022-10-20T12:39:16.655Z,101068.63
2022-10-20T12:41:55.930Z,101044.34
2022-10-20T12:44:24.411Z,101023.81
2022-10-20T12:46:57.865Z,101018.44
2022-10-20T12:49:31.828Z,101013.91
2022-10-20T12:52:00.635Z,100996.84
2022-10-20T12:54:36.121Z,101000.28
2022-10-20T12:57:07.527Z,101024.25
2022-10-20T12:59:40.443Z,101015.13
2022-10-20T13:02:33.017Z,101006.09
2022-10-20T13:05:03.806Z,101007.63
2022-10-20T13:08:08.667Z,101011.97
2022-10-20T13:10:38.772Z,101003.78
2022-10-20T13:13:41.973Z,101005.34
2022-10-20T13:16:20.448Z,101009.72
2022-10-20T13:18:53.492Z,100996.22
2022-10-20T13:21:29.391Z,100995.38
2022-10-20T13:24:05.614Z,100997.31
2022-10-20T13:26:39.811Z,100999.16
2022-10-20T13:29:14.284Z,101002.72
2022-10-20T13:31:58.184Z,100994.63
2022-10-20T13:34:34.648Z,101005.22
2022-10-20T13:37:21.691Z,101009.50
2022-10-20T13:40:03.603Z,101006.69
2022-10-20T13:42:43.222Z,101006.41
2022-10-20T13:45:20.486Z,100994.53
2022-10-20T13:47:51.884Z,100979.78
2022-10-20T13:50:23.615Z,100975.13
2022-10-20T13:52:55.117Z,100986.75
2022-10-20T13:55:24.344Z,100976.63
2022-10-20T13:57:57.093Z,100975.41
2022-10-20T14:00:26.965Z,100960.63
2022-10-20T14:03:00.553Z,100972.72
2022-10-20T14:05:30.336Z,100978.56
2022-10-20T14:08:04.628Z,100968.44
2022-10-20T14:10:40.124Z,100974.53
2022-10-20T14:13:12.169Z,100964.59
2022-10-20T14:15:40.021Z,100967.28
2022-10-20T14:18:19.280Z,100960.97
2022-10-20T14:20:55.095Z,100963.78
2022-10-20T14:23:24.122Z,100956.81
2022-10-20T14:25:53.924Z,100952.34
2022-10-20T14:28:23.421Z,100944.31
2022-10-20T14:30:53.048Z,100942.53
2022-10-20T14:33:20.786Z,100933.53
2022-10-20T14:35:52.922Z,100951.47
2022-10-20T14:38:24.070Z,100954.13
2022-10-20T14:40:53.223Z,100950.59
2022-10-20T14:43:25.534Z,100937.09
2022-10-20T14:45:55.877Z,100922.72
2022-10-20T14:48:29.794Z,100947.94
2022-10-20T14:50:57.495Z,100949.00
2022-10-20T14:53:34.587Z,100954.72
2022-10-20T14:56:03.711Z,100956.66
2022-10-20T14:58:38.926Z,100948.66
2022-10-20T15:01:26.236Z,100941.41
2022-10-20T15:06:41.701Z,100936.03
2022-10-20T15:09:19.474Z,100931.56
2022-10-20T15:11:47.343Z,100923.47
2022-10-20T15:14:18.207Z,100928.06
2022-10-20T15:16:48.233Z,100923.72
2022-10-20T15:19:39.535Z,100922.88
2022-10-20T15:24:45.399Z,100931.91
2022-10-20T15:27:16.687Z,100922.13
2022-10-20T15:29:50.002Z,100913.25
2022-10-20T15:32:18.122Z,100921.44
2022-10-20T15:34:45.880Z,100928.63
2022-10-20T15:37:13.521Z,100919.72
2022-10-20T15:39:41.180Z,100917.16
2022-10-20T15:42:11.949Z,100914.50
2022-10-20T15:44:39.656Z,100917.22
2022-10-20T15:47:09.951Z,100909.16
2022-10-20T15:49:37.589Z,100907.41
2022-10-20T15:52:05.482Z,100912.78
2022-10-20T15:54:33.287Z,100899.41
2022-10-20T15:57:00.978Z,100899.44
2022-10-20T15:59:28.674Z,100900.38
2022-10-20T16:01:56.415Z,100900.41
2022-10-20T16:04:26.955Z,100899.50
2022-10-20T16:06:59.073Z,100893.22
2022-10-20T16:09:28.171Z,100887.00
2022-10-20T16:11:55.822Z,100887.03
2022-10-20T16:14:23.518Z,100889.78
2022-10-20T16:16:51.194Z,100889.03
2022-10-20T16:19:19.007Z,100886.44
2022-10-20T16:21:48.147Z,100889.22
2022-10-20T16:24:15.866Z,100874.13
2022-10-20T16:26:43.624Z,100893.13
2022-10-20T16:29:11.300Z,100892.34
2022-10-20T16:31:39.025Z,100887.94
2022-10-20T16:34:06.741Z,100892.50
2022-10-20T16:36:34.858Z,100890.75
2022-10-20T16:39:03.959Z,100883.69
2022-10-20T16:41:31.727Z,100889.13
2022-10-20T16:44:01.238Z,100881.16
2022-10-20T16:46:29.298Z,100877.63
2022-10-20T16:48:57.309Z,100877.78
2022-10-20T16:51:25.276Z,100881.44
2022-10-20T16:53:57.376Z,100883.28
2022-10-20T16:56:28.837Z,100870.75
2022-10-20T16:58:57.235Z,100881.56
2022-10-20T17:01:25.495Z,100878.06
2022-10-20T17:03:54.644Z,100884.44
2022-10-20T17:06:23.798Z,100876.44
2022-10-20T17:08:52.136Z,100888.19
2022-10-20T17:11:22.110Z,100883.72
2022-10-20T17:13:51.714Z,100886.44
2022-10-20T17:16:26.191Z,100876.63
2022-10-20T17:18:56.870Z,100880.25
2022-10-20T17:21:24.991Z,100882.97
2022-10-20T17:23:52.694Z,100879.47
2022-10-20T17:26:22.264Z,100875.91
2022-10-20T17:28:52.114Z,100875.91
2022-10-20T17:31:20.201Z,100867.81
2022-10-20T17:33:51.458Z,100878.63
2022-10-20T17:36:25.786Z,100881.41
2022-10-20T17:38:56.354Z,100873.34
2022-10-20T17:41:24.793Z,100872.44
2022-10-20T17:43:53.863Z,100875.13
2022-10-20T17:46:21.951Z,100882.31
2022-10-20T17:48:49.794Z,100881.41
2022-10-20T17:51:20.175Z,100882.38
2022-10-20T17:53:49.821Z,100880.59
2022-10-20T17:56:19.594Z,100887.75
2022-10-20T17:58:48.904Z,100882.38
2022-10-20T18:01:20.954Z,100876.13
2022-10-20T18:03:50.406Z,100876.94
2022-10-20T18:06:19.720Z,100872.50
2022-10-20T18:08:48.376Z,100870.69
2022-10-20T18:11:19.383Z,100865.31
2022-10-20T18:13:47.539Z,100853.72
2022-10-20T18:16:17.091Z,100860.81
2022-10-20T18:18:46.580Z,100857.25
2022-10-20T18:21:17.002Z,100867.09
2022-10-20T18:23:45.919Z,100880.53
2022-10-20T18:26:16.207Z,100873.38
2022-10-20T18:28:47.336Z,100864.41
2022-10-20T18:31:18.927Z,100869.72
2022-10-20T18:33:48.968Z,100866.13
2022-10-20T18:36:18.726Z,100866.09
2022-10-20T18:38:47.340Z,100861.56
2022-10-20T18:41:16.469Z,100854.41
2022-10-20T18:43:45.355Z,100851.78
2022-10-20T18:46:15.146Z,100842.81
2022-10-20T18:48:43.563Z,100844.66
2022-10-20T18:51:14.834Z,100833.88
2022-10-20T18:53:43.783Z,100832.09
2022-10-20T18:56:14.288Z,100819.47
2022-10-20T18:58:43.522Z,100825.75
2022-10-20T19:01:13.219Z,100821.25
2022-10-20T19:03:41.961Z,100832.00
2022-10-20T19:06:12.959Z,100826.63
2022-10-20T19:08:41.499Z,100825.66
2022-10-20T19:11:12.023Z,100825.63
2022-10-20T19:13:40.507Z,100820.25
2022-10-20T19:16:10.559Z,100820.19
2022-10-20T19:18:40.491Z,100818.41
2022-10-20T19:21:10.736Z,100826.44
2022-10-20T19:23:41.752Z,100820.25
2022-10-20T19:26:13.218Z,100815.78
2022-10-20T19:28:44.001Z,100816.75
2022-10-20T19:31:20.725Z,100804.22
2022-10-20T19:33:50.977Z,100797.06
2022-10-20T19:36:19.507Z,100796.22
2022-10-20T19:38:48.804Z,100797.16
2022-10-20T19:41:16.854Z,100793.56
2022-10-20T19:43:45.059Z,100789.09
2022-10-20T19:46:15.183Z,100780.97
2022-10-20T19:48:43.482Z,100781.06
2022-10-20T19:51:11.414Z,100773.03
2022-10-20T19:53:40.215Z,100768.56
2022-10-20T19:56:15.874Z,100765.00
2022-10-20T19:58:46.546Z,100767.72
2022-10-20T20:01:16.924Z,100765.00
2022-10-20T20:03:45.298Z,100758.75
2022-10-20T20:06:16.320Z,100754.28
2022-10-20T20:08:47.658Z,100748.91
2022-10-20T20:11:23.686Z,100736.38
2022-10-20T20:13:51.797Z,100746.28
2022-10-20T20:16:19.897Z,100732.81
2022-10-20T20:18:48.006Z,100730.13
2022-10-20T20:21:16.203Z,100725.69
2022-10-20T20:23:59.018Z,100739.19
2022-10-20T20:26:29.545Z,100714.13
2022-10-20T20:28:58.513Z,100724.00
2022-10-20T20:31:27.351Z,100721.31
2022-10-20T20:33:56.576Z,100729.34
2022-10-20T20:36:26.558Z,100724.84
2022-10-20T20:38:57.466Z,100728.44
2022-10-20T20:41:26.601Z,100742.81
2022-10-20T20:43:55.957Z,100741.03
2022-10-20T20:46:26.708Z,100753.56
2022-10-20T20:48:54.637Z,100750.88
2022-10-20T20:51:23.508Z,100749.06
2022-10-20T20:53:51.230Z,100745.44
2022-10-20T20:56:21.910Z,100741.88
2022-10-20T20:58:55.082Z,100736.50
2022-10-20T21:01:27.470Z,100737.41
2022-10-20T21:03:55.691Z,100737.38
2022-10-20T21:06:28.908Z,100749.88
2022-10-20T21:09:06.397Z,100740.88
2022-10-20T21:11:34.164Z,100731.06
2022-10-20T21:14:01.996Z,100727.44
2022-10-20T21:16:32.612Z,100730.06
2022-10-20T21:19:02.202Z,100721.97
2022-10-20T21:21:31.736Z,100713.06
2022-10-20T21:24:00.359Z,100711.28
2022-10-20T21:26:30.006Z,100717.63
2022-10-20T21:28:58.204Z,100719.41
2022-10-20T21:31:27.949Z,100718.50
2022-10-20T21:33:59.693Z,100714.94
2022-10-20T21:36:29.454Z,100715.91
2022-10-20T21:38:57.185Z,100723.03
2022-10-20T21:41:26.202Z,100729.41
2022-10-20T21:43:55.644Z,100727.53
2022-10-20T21:46:25.278Z,100743.63
2022-10-20T21:48:54.636Z,100740.06
2022-10-20T21:51:25.787Z,100749.00
2022-10-20T21:53:55.666Z,100735.50
2022-10-20T21:56:24.163Z,100734.63
2022-10-20T21:58:52.261Z,100736.41
2022-10-20T22:01:22.112Z,100731.91
2022-10-20T22:03:50.996Z,100732.72
2022-10-20T22:06:20.793Z,100734.34
2022-10-20T22:08:52.075Z,100736.91
2022-10-20T22:11:21.994Z,100732.19
2022-10-20T22:13:50.667Z,100730.38
2022-10-20T22:16:21.790Z,100730.31
2022-10-20T22:18:49.721Z,100726.66
2022-10-20T22:21:20.623Z,100722.09
2022-10-20T22:23:52.613Z,100721.13
2022-10-20T22:26:20.576Z,100711.19
2022-10-20T22:28:48.274Z,100710.22
2022-10-20T22:31:18.022Z,100698.47
2022-10-20T22:33:45.918Z,100696.59
2022-10-20T22:36:13.627Z,100700.16
2022-10-20T22:38:41.233Z,100701.94
2022-10-20T22:41:24.092Z,100715.38
2022-10-20T22:43:51.738Z,100721.66
2022-10-20T22:46:19.525Z,100720.69
2022-10-20T22:48:47.231Z,100727.81
2022-10-20T22:51:15.250Z,100738.56
2022-10-20T22:53:43.079Z,100752.84
2022-10-20T22:56:12.942Z,100765.38
2022-10-20T22:58:42.504Z,100768.84
2022-10-20T23:01:12.655Z,100757.09
2022-10-20T23:03:40.861Z,100746.38
2022-10-20T23:06:13.043Z,100740.97
2022-10-20T23:08:43.145Z,100747.31
2022-10-20T23:11:11.254Z,100745.53
2022-10-20T23:13:38.941Z,100742.84
2022-10-20T23:16:08.545Z,100739.34
2022-10-20T23:18:36.672Z,100740.25
2022-10-20T23:21:05.158Z,100735.81
2022-10-20T23:23:33.240Z,100724.19
2022-10-20T23:26:03.802Z,100712.50
2022-10-20T23:28:32.450Z,100717.03
2022-10-20T23:31:09.447Z,100714.38
2022-10-20T23:33:37.392Z,100709.09
2022-10-20T23:36:05.416Z,100710.06
2022-10-20T23:38:33.084Z,100702.94
2022-10-20T23:41:00.737Z,100707.53
2022-10-20T23:43:28.537Z,100691.41
2022-10-20T23:45:56.213Z,100688.72
2022-10-20T23:48:25.701Z,100690.56
2022-10-20T23:50:53.404Z,100693.25
2022-10-20T23:53:21.097Z,100688.78
2022-10-20T23:55:48.735Z,100682.53
2022-10-20T23:58:20.954Z,100678.88
